Time;durP1;ratioP1;P1;durP2;ratioP2;P2;SDS_P1;SDS_P2;PMS_P1;PMS_P2;Temp;Humidity;BMP_temperature;BMP_pressure;BME280_temperature;BME280_humidity;BME280_pressure;Samples;Min_cycle;Max_cycle;Signal;HPM_P1;HPM_P2
2023/04/13 00:01:20;;;;;;;12.00;6.03;;;;;;;4.24;100.00;99251.25;4999718;28;20056;-86
2023/04/13 00:03:48;;;;;;;9.20;5.65;;;;;;;4.15;100.00;99246.97;5032023;28;20049;-86
2023/04/13 00:06:15;;;;;;;10.73;5.25;;;;;;;4.08;100.00;99250.47;4999935;28;20515;-86
2023/04/13 00:08:43;;;;;;;11.90;6.05;;;;;;;3.98;100.00;99245.34;4995520;28;20099;-85
2023/04/13 00:11:11;;;;;;;9.63;5.40;;;;;;;3.91;100.00;99228.13;5000132;28;20049;-86
2023/04/13 00:13:41;;;;;;;14.05;6.28;;;;;;;3.93;100.00;99228.97;5009749;28;20053;-86
2023/04/13 00:16:12;;;;;;;10.35;6.07;;;;;;;3.94;100.00;99232.44;5000469;28;20459;-86
2023/04/13 00:18:39;;;;;;;11.02;5.78;;;;;;;3.90;100.00;99230.72;5011676;28;20556;-86
2023/04/13 00:21:07;;;;;;;15.32;6.22;;;;;;;3.83;100.00;99232.44;5013354;28;20048;-86
2023/04/13 00:23:35;;;;;;;13.48;6.13;;;;;;;3.80;100.00;99227.31;4998659;28;20050;-86
2023/04/13 00:26:02;;;;;;;8.50;5.05;;;;;;;3.78;100.00;99226.44;4998972;28;20056;-87
2023/04/13 00:28:29;;;;;;;11.95;6.63;;;;;;;3.78;100.00;99229.03;5021853;28;20529;-86
2023/04/13 00:30:56;;;;;;;9.68;5.97;;;;;;;3.78;100.00;99226.44;5003702;28;20041;-85
2023/04/13 00:33:22;;;;;;;14.35;6.88;;;;;;;3.77;100.00;99230.75;4999494;28;20712;-85
2023/04/13 00:35:49;;;;;;;13.65;7.70;;;;;;;3.80;100.00;99229.88;5029682;28;20072;-85
2023/04/13 00:38:17;;;;;;;15.00;7.75;;;;;;;3.76;100.00;99223.84;5029821;28;20468;-86
2023/04/13 00:40:43;;;;;;;13.45;7.68;;;;;;;3.86;100.00;99226.41;5029959;28;20095;-86
2023/04/13 00:43:10;;;;;;;17.25;7.55;;;;;;;3.83;100.00;99229.03;4996286;28;20105;-86
2023/04/13 00:45:38;;;;;;;20.88;9.38;;;;;;;3.83;100.00;99221.25;5025633;28;20100;-86
2023/04/13 00:48:07;;;;;;;13.52;8.63;;;;;;;3.84;100.00;99222.97;4998425;28;20528;-87
2023/04/13 00:50:34;;;;;;;17.98;8.80;;;;;;;3.87;100.00;99226.41;5016420;28;20061;-86
2023/04/13 00:53:02;;;;;;;17.13;9.07;;;;;;;3.91;100.00;99227.25;5009471;28;20099;-87
2023/04/13 00:55:28;;;;;;;15.18;8.25;;;;;;;3.88;100.00;99222.09;5013530;28;20053;-86
2023/04/13 00:57:56;;;;;;;11.40;8.13;;;;;;;3.90;100.00;99221.22;5014172;28;20052;-87
2023/04/13 01:00:25;;;;;;;12.18;7.20;;;;;;;3.88;100.00;99228.13;4999417;28;20056;-87
2023/04/13 01:02:55;;;;;;;16.13;8.52;;;;;;;3.86;100.00;99223.81;5009978;28;20059;-87
2023/04/13 01:05:24;;;;;;;15.35;8.18;;;;;;;3.81;100.00;99221.25;5000849;28;20054;-87
2023/04/13 01:08:07;;;;;;;13.70;8.40;;;;;;;3.74;100.00;99216.97;4999246;28;20054;-87
2023/04/13 01:10:57;;;;;;;15.50;8.52;;;;;;;3.72;100.00;99224.75;5029318;28;20042;-85
2023/04/13 01:13:41;;;;;;;14.73;8.13;;;;;;;3.65;100.00;99236.00;5003357;28;20058;-85
2023/04/13 01:16:21;;;;;;;15.32;8.77;;;;;;;3.68;100.00;99229.94;5013321;28;20500;-85
2023/04/13 01:18:53;;;;;;;12.35;7.10;;;;;;;3.66;100.00;99224.75;5017197;28;20432;-85
2023/04/13 01:21:24;;;;;;;14.02;7.78;;;;;;;3.64;100.00;99214.41;5004905;28;20496;-85
2023/04/13 01:24:24;;;;;;;11.10;7.63;;;;;;;3.60;100.00;99204.94;5017713;28;20072;-86
2023/04/13 01:27:13;;;;;;;10.23;7.30;;;;;;;3.55;100.00;99201.53;5015416;28;20049;-86
2023/04/13 01:29:41;;;;;;;11.35;7.63;;;;;;;3.50;100.00;99202.41;4995607;28;20077;-86
2023/04/13 01:32:10;;;;;;;12.07;6.88;;;;;;;3.45;100.00;99210.19;5029954;28;20391;-85
2023/04/13 01:34:38;;;;;;;12.40;8.18;;;;;;;3.48;100.00;99210.16;5018270;28;20053;-86
2023/04/13 01:37:05;;;;;;;12.63;8.25;;;;;;;3.50;100.00;99208.44;4997622;28;20567;-85
2023/04/13 01:39:32;;;;;;;17.95;7.85;;;;;;;3.51;100.00;99204.13;5021310;28;20065;-86
2023/04/13 01:42:02;;;;;;;10.80;6.80;;;;;;;3.54;100.00;99209.28;5007140;28;20046;-86
2023/04/13 01:44:32;;;;;;;12.70;7.05;;;;;;;3.52;100.00;99204.13;5006496;28;20046;-86
2023/04/13 01:47:14;;;;;;;11.18;6.63;;;;;;;3.53;100.00;99204.97;4998094;28;20062;-86
2023/04/13 01:49:52;;;;;;;11.13;5.90;;;;;;;3.61;100.00;99200.63;5025248;28;20057;-85
2023/04/13 01:52:21;;;;;;;11.30;6.90;;;;;;;3.55;100.00;99193.75;4974161;28;20118;-86
2023/04/13 01:54:49;;;;;;;14.27;7.32;;;;;;;3.52;100.00;99193.78;4977747;28;20049;-85
2023/04/13 01:57:16;;;;;;;10.95;7.07;;;;;;;3.54;100.00;99193.78;4979093;28;20046;-87
2023/04/13 01:59:43;;;;;;;10.73;6.50;;;;;;;3.55;100.00;99187.75;4992684;28;20073;-87
2023/04/13 02:02:15;;;;;;;11.75;6.95;;;;;;;3.51;100.00;99197.22;4993362;28;20045;-87
2023/04/13 02:04:42;;;;;;;17.88;7.68;;;;;;;3.50;100.00;99195.50;4974958;28;20054;-86
2023/04/13 02:07:09;;;;;;;9.40;5.93;;;;;;;3.51;100.00;99188.59;4988058;28;20046;-86
2023/04/13 02:09:35;;;;;;;10.20;6.70;;;;;;;3.55;100.00;99187.75;4991836;28;20409;-86
2023/04/13 02:12:02;;;;;;;16.73;7.82;;;;;;;3.61;100.00;99180.81;4972384;28;20041;-87
2023/04/13 02:14:29;;;;;;;11.43;6.13;;;;;;;3.63;100.00;99185.97;5010244;28;20397;-86
2023/04/13 02:16:56;;;;;;;10.27;6.35;;;;;;;3.60;100.00;99186.84;5026883;28;20050;-86
2023/04/13 02:19:23;;;;;;;13.13;6.90;;;;;;;3.58;100.00;99185.13;5011135;28;20038;-86
2023/04/13 02:21:50;;;;;;;8.90;6.88;;;;;;;3.54;100.00;99183.44;5018376;28;20050;-86
2023/04/13 02:24:17;;;;;;;13.07;6.93;;;;;;;3.53;100.00;99187.72;5027457;28;20528;-87
2023/04/13 02:26:43;;;;;;;9.80;7.07;;;;;;;3.57;100.00;99176.50;4993993;28;20050;-86
2023/04/13 02:29:10;;;;;;;8.57;6.35;;;;;;;3.56;100.00;99179.09;4990223;28;20126;-87
2023/04/13 02:31:36;;;;;;;11.50;7.10;;;;;;;3.61;100.00;99179.94;4978554;28;20475;-86
2023/04/13 02:34:03;;;;;;;11.52;6.32;;;;;;;3.53;100.00;99171.34;5010364;28;20070;-86
2023/04/13 02:36:30;;;;;;;9.98;6.13;;;;;;;3.55;100.00;99174.81;4994116;28;20096;-86
2023/04/13 02:38:56;;;;;;;11.30;5.57;;;;;;;3.54;100.00;99179.09;4979510;28;20045;-87
2023/04/13 02:41:23;;;;;;;10.57;6.03;;;;;;;3.52;100.00;99173.09;5031264;28;20608;-86
2023/04/13 02:43:51;;;;;;;11.40;6.10;;;;;;;3.51;100.00;99184.28;4997625;28;20492;-85
2023/04/13 02:46:18;;;;;;;10.88;5.90;;;;;;;3.47;100.00;99178.25;5017962;28;20096;-85
2023/04/13 02:48:44;;;;;;;8.52;5.63;;;;;;;3.47;100.00;99180.84;5012077;28;20049;-87
2023/04/13 02:51:11;;;;;;;13.90;6.30;;;;;;;3.43;100.00;99173.13;5010501;28;20515;-88
2023/04/13 02:53:38;;;;;;;8.30;5.80;;;;;;;3.53;100.00;99179.97;5029646;28;20049;-87
2023/04/13 02:56:05;;;;;;;9.55;5.90;;;;;;;3.52;100.00;99170.50;5001563;28;20567;-87
2023/04/13 02:58:32;;;;;;;9.98;5.70;;;;;;;3.50;100.00;99181.72;5024850;28;20038;-87
2023/04/13 03:00:58;;;;;;;8.98;5.90;;;;;;;3.49;100.00;99191.19;5005240;28;20057;-87
2023/04/13 03:03:29;;;;;;;8.27;5.28;;;;;;;3.43;100.00;99193.81;5010911;28;20095;-87
2023/04/13 03:05:55;;;;;;;7.70;6.50;;;;;;;3.32;100.00;99186.06;4996011;28;20140;-86
2023/04/13 03:08:22;;;;;;;11.30;5.97;;;;;;;3.27;100.00;99180.06;5013621;28;20764;-87
2023/04/13 03:10:50;;;;;;;7.93;5.43;;;;;;;3.19;100.00;99180.06;5000563;28;20140;-86
2023/04/13 03:13:16;;;;;;;12.02;5.90;;;;;;;3.22;100.00;99176.63;4993368;28;20145;-87
2023/04/13 03:15:43;;;;;;;10.52;5.53;;;;;;;3.22;100.00;99179.22;4995535;28;20554;-87
2023/04/13 03:18:10;;;;;;;11.48;5.85;;;;;;;3.18;100.00;99185.25;4993442;28;20161;-87
2023/04/13 03:20:36;;;;;;;7.80;5.95;;;;;;;3.20;100.00;99184.38;4996948;28;20048;-87
2023/04/13 03:23:03;;;;;;;11.32;6.07;;;;;;;3.21;100.00;99187.84;5026803;28;20042;-85
2023/04/13 03:25:30;;;;;;;7.57;5.70;;;;;;;3.24;100.00;99183.50;5012786;28;20049;-85
2023/04/13 03:27:56;;;;;;;10.70;6.18;;;;;;;3.25;100.00;99185.25;5026051;28;20104;-85
2023/04/13 03:30:23;;;;;;;9.30;6.15;;;;;;;3.27;100.00;99180.94;5025122;28;20065;-86
2023/04/13 03:32:51;;;;;;;8.40;5.75;;;;;;;3.35;100.00;99180.91;5026884;28;20112;-85
2023/04/13 03:35:17;;;;;;;8.60;5.38;;;;;;;3.33;100.00;99184.38;5007155;28;20134;-85
2023/04/13 03:37:44;;;;;;;7.93;5.30;;;;;;;3.27;100.00;99180.94;5010848;28;20540;-84
2023/04/13 03:40:11;;;;;;;7.32;4.90;;;;;;;3.26;100.00;99178.31;4993053;28;20165;-85
2023/04/13 03:42:42;;;;;;;8.43;4.70;;;;;;;3.25;100.00;99182.66;5003970;28;20065;-86
2023/04/13 03:45:09;;;;;;;10.15;4.97;;;;;;;3.23;100.00;99183.53;5008691;28;20041;-84
2023/04/13 03:47:37;;;;;;;7.65;5.25;;;;;;;3.21;100.00;99182.69;5013834;28;20049;-84
2023/04/13 03:50:04;;;;;;;4.25;3.88;;;;;;;3.20;100.00;99179.22;5010457;28;20059;-86
2023/04/13 03:52:31;;;;;;;4.22;3.75;;;;;;;3.19;100.00;99185.25;5008503;28;20424;-86
2023/04/13 03:54:57;;;;;;;9.45;5.00;;;;;;;3.23;100.00;99186.09;5013961;28;20057;-87
2023/04/13 03:57:25;;;;;;;5.88;3.90;;;;;;;3.23;100.00;99186.94;4994359;28;20056;-86
2023/04/13 03:59:52;;;;;;;6.20;3.88;;;;;;;3.22;100.00;99184.38;4988266;28;20045;-86
2023/04/13 04:02:18;;;;;;;5.47;3.30;;;;;;;3.22;100.00;99184.38;5012840;28;20042;-85
2023/04/13 04:04:45;;;;;;;5.43;3.30;;;;;;;3.26;100.00;99189.56;4999883;28;20416;-85
2023/04/13 04:07:11;;;;;;;6.00;3.70;;;;;;;3.30;100.00;99193.84;5010552;28;20129;-86
2023/04/13 04:09:38;;;;;;;6.25;3.88;;;;;;;3.36;100.00;99186.94;5025212;28;20060;-84
2023/04/13 04:12:05;;;;;;;4.80;2.92;;;;;;;3.36;100.00;99190.38;4996957;28;20707;-85
2023/04/13 04:14:31;;;;;;;4.85;3.38;;;;;;;3.42;100.00;99189.50;5013302;28;20103;-85
2023/04/13 04:16:58;;;;;;;4.40;3.15;;;;;;;3.47;100.00;99185.19;4999869;28;20123;-87
2023/04/13 04:19:25;;;;;;;4.28;2.97;;;;;;;3.50;100.00;99192.06;5009190;28;20080;-86
2023/04/13 04:21:56;;;;;;;3.63;2.67;;;;;;;3.54;100.00;99193.78;5013158;28;20049;-84
2023/04/13 04:24:26;;;;;;;4.13;2.60;;;;;;;3.56;100.00;99198.06;4991367;28;20451;-85
2023/04/13 04:26:53;;;;;;;13.57;2.92;;;;;;;3.66;100.00;99200.63;4995442;28;20050;-85
2023/04/13 04:29:28;;;;;;;2.80;2.45;;;;;;;3.77;100.00;99201.44;5043930;28;20087;-86
2023/04/13 04:31:55;;;;;;;3.90;2.47;;;;;;;3.80;100.00;99202.25;5008691;28;20146;-87
2023/04/13 04:34:21;;;;;;;2.83;2.17;;;;;;;3.79;100.00;99202.28;5009936;28;20049;-86
2023/04/13 04:36:49;;;;;;;5.07;2.63;;;;;;;3.77;100.00;99204.88;5024425;28;20053;-85
2023/04/13 04:39:21;;;;;;;4.68;1.83;;;;;;;3.83;100.00;99201.38;5023523;28;20049;-87
2023/04/13 04:41:52;;;;;;;2.45;1.85;;;;;;;3.89;100.00;99203.09;4994754;28;20550;-86
2023/04/13 04:44:23;;;;;;;2.40;1.77;;;;;;;3.93;100.00;99209.97;5024504;28;20033;-86
2023/04/13 04:46:52;;;;;;;3.03;1.98;;;;;;;3.95;100.00;99211.69;4991260;28;20049;-85
2023/04/13 04:49:20;;;;;;;2.10;1.48;;;;;;;3.96;100.00;99215.13;5008931;28;20046;-85
2023/04/13 04:51:51;;;;;;;2.53;1.30;;;;;;;4.00;100.00;99222.00;4997049;28;20137;-85
2023/04/13 04:54:19;;;;;;;1.40;1.30;;;;;;;4.12;100.00;99216.78;4992086;28;20132;-86
2023/04/13 04:56:48;;;;;;;2.65;1.40;;;;;;;4.29;100.00;99218.41;5023365;28;20049;-85
2023/04/13 04:59:14;;;;;;;2.88;1.17;;;;;;;4.42;100.00;99221.75;4993239;28;20476;-86
2023/04/13 05:01:41;;;;;;;1.30;1.02;;;;;;;4.53;100.00;99224.28;5011614;28;20045;-86
2023/04/13 05:04:10;;;;;;;3.97;1.20;;;;;;;4.57;100.00;99213.88;4994493;28;20466;-87
2023/04/13 05:06:40;;;;;;;2.90;1.33;;;;;;;4.60;100.00;99211.28;5003361;28;20061;-86
2023/04/13 05:09:08;;;;;;;1.98;1.58;;;;;;;4.65;100.00;99216.41;4992477;28;20144;-86
2023/04/13 05:11:35;;;;;;;1.75;0.95;;;;;;;4.69;100.00;99220.69;4992314;28;20053;-86
2023/04/13 05:14:02;;;;;;;5.95;3.83;;;;;;;4.76;100.00;99222.38;5008025;28;20401;-85
2023/04/13 05:16:29;;;;;;;0.93;0.88;;;;;;;4.84;100.00;99217.13;4992597;28;20045;-85
2023/04/13 05:18:59;;;;;;;0.90;0.63;;;;;;;4.91;100.00;99218.78;4979909;28;20057;-87
2023/04/13 05:21:26;;;;;;;2.42;0.90;;;;;;;5.00;100.00;99222.19;5025356;28;20049;-84
2023/04/13 05:23:53;;;;;;;1.27;0.90;;;;;;;5.04;100.00;99223.88;5007083;28;20053;-87
2023/04/13 05:26:19;;;;;;;1.88;0.98;;;;;;;5.08;100.00;99225.56;5000599;28;20055;-85
2023/04/13 05:28:48;;;;;;;0.75;0.68;;;;;;;5.12;100.00;99230.72;4993775;28;20050;-86
2023/04/13 05:31:15;;;;;;;2.63;0.88;;;;;;;5.18;100.00;99236.72;5019754;28;20100;-87
2023/04/13 05:33:42;;;;;;;3.17;0.75;;;;;;;5.27;100.00;99234.03;4990529;28;20113;-86
2023/04/13 05:36:09;;;;;;;2.80;0.52;;;;;;;5.35;100.00;99239.13;4989322;28;20943;-85
2023/04/13 05:38:36;;;;;;;2.33;0.52;;;;;;;5.40;100.00;99238.19;4993371;28;20052;-87
2023/04/13 05:41:03;;;;;;;1.50;0.60;;;;;;;5.46;100.00;99248.53;5017907;28;20109;-87
2023/04/13 05:43:29;;;;;;;2.05;0.93;;;;;;;5.49;100.00;99245.03;5025745;28;20033;-87
2023/04/13 05:45:56;;;;;;;0.82;0.40;;;;;;;5.46;100.00;99245.94;4986682;28;20053;-85
2023/04/13 05:48:22;;;;;;;3.38;1.52;;;;;;;5.44;100.00;99242.47;4991408;28;20076;-86
2023/04/13 05:50:49;;;;;;;0.88;0.30;;;;;;;5.46;100.00;99238.13;5017611;28;20054;-85
2023/04/13 05:53:16;;;;;;;0.82;0.50;;;;;;;5.45;100.00;99233.81;4999972;28;20142;-87
2023/04/13 05:55:43;;;;;;;3.25;0.80;;;;;;;5.50;100.00;99238.97;5010851;28;20064;-85
2023/04/13 05:58:10;;;;;;;1.00;0.68;;;;;;;5.61;100.00;99241.44;4992528;28;20506;-87
2023/04/13 06:00:37;;;;;;;2.33;0.90;;;;;;;5.81;100.00;99243.78;4987744;28;20061;-87
2023/04/13 06:03:07;;;;;;;2.50;0.47;;;;;;;6.03;100.00;99239.22;5031937;28;20048;-87
2023/04/13 06:05:35;;;;;;;7.68;0.70;;;;;;;6.22;99.21;99239.84;4997736;28;20048;-87
2023/04/13 06:08:04;;;;;;;1.75;0.43;;;;;;;6.44;97.83;99226.50;4991926;28;20109;-86
2023/04/13 06:10:31;;;;;;;1.90;0.55;;;;;;;6.63;96.75;99242.69;4985488;28;20420;-86
2023/04/13 06:12:57;;;;;;;3.65;0.68;;;;;;;6.86;94.80;99247.53;5008104;28;20084;-86
2023/04/13 06:15:24;;;;;;;1.23;0.38;;;;;;;7.00;94.44;99246.44;4995539;28;20103;-86
2023/04/13 06:17:52;;;;;;;0.20;0.20;;;;;;;7.18;92.23;99248.72;5014168;28;20069;-89
2023/04/13 06:20:20;;;;;;;2.85;0.73;;;;;;;7.33;93.12;99258.00;4995192;28;20042;-86
2023/04/13 06:22:47;;;;;;;2.40;0.52;;;;;;;7.42;91.86;99251.78;4994827;28;20041;-87
2023/04/13 06:25:15;;;;;;;1.48;0.77;;;;;;;7.48;91.42;99267.25;5000296;28;20072;-87
2023/04/13 06:27:43;;;;;;;3.75;0.47;;;;;;;7.60;90.99;99267.06;4997454;28;20052;-87
2023/04/13 06:30:10;;;;;;;0.70;0.57;;;;;;;7.69;89.60;99275.56;4996348;28;20147;-88
2023/04/13 06:32:37;;;;;;;0.50;0.30;;;;;;;7.89;89.45;99265.63;5031132;28;20172;-88
2023/04/13 06:35:08;;;;;;;2.00;0.50;;;;;;;8.23;87.48;99270.13;5030249;28;20053;-89
2023/04/13 06:37:35;;;;;;;4.28;0.40;;;;;;;8.51;84.29;99277.34;5035414;28;20079;-87
2023/04/13 06:40:13;;;;;;;0.82;0.40;;;;;;;8.66;83.85;99273.53;5014469;28;20061;-87
2023/04/13 06:42:43;;;;;;;1.95;0.60;;;;;;;8.80;83.07;99281.06;5009482;28;20108;-88
2023/04/13 06:45:12;;;;;;;1.27;0.25;;;;;;;8.97;81.55;99274.56;4997263;28;20084;-89
2023/04/13 06:47:40;;;;;;;2.40;0.30;;;;;;;8.99;81.54;99281.44;5016628;28;20046;-86
2023/04/13 06:50:12;;;;;;;2.35;0.20;;;;;;;8.85;80.50;99271.38;5015625;28;20029;-90
2023/04/13 06:52:38;;;;;;;1.27;0.80;;;;;;;8.82;81.10;99276.63;5039816;28;20049;-86
2023/04/13 06:55:08;;;;;;;3.50;0.40;;;;;;;8.76;80.01;99269.81;5006467;28;20134;-85
2023/04/13 06:57:34;;;;;;;2.45;0.45;;;;;;;8.70;80.07;99276.94;5026814;28;20215;-87
2023/04/13 07:00:01;;;;;;;0.43;0.20;;;;;;;8.75;79.68;99278.53;5040350;28;20041;-87
2023/04/13 07:02:28;;;;;;;5.30;0.32;;;;;;;8.96;78.35;99267.59;5012035;28;20639;-85
2023/04/13 07:04:54;;;;;;;0.28;0.25;;;;;;;8.92;77.26;99278.13;4995669;28;20108;-88
2023/04/13 07:07:21;;;;;;;1.17;0.47;;;;;;;8.72;78.04;99273.41;4994716;28;20041;-85
2023/04/13 07:09:49;;;;;;;1.15;0.40;;;;;;;8.48;78.91;99287.00;4990805;28;20527;-85
2023/04/13 07:12:16;;;;;;;1.80;0.22;;;;;;;8.24;80.20;99286.63;5024470;28;20507;-85
2023/04/13 07:14:45;;;;;;;1.30;0.38;;;;;;;8.23;80.39;99271.88;5024000;28;20073;-86
2023/04/13 07:17:11;;;;;;;2.03;0.20;;;;;;;8.73;79.45;99277.72;4996763;28;20544;-87
2023/04/13 07:19:39;;;;;;;2.03;0.20;;;;;;;9.52;77.55;99282.75;4997912;28;20396;-86
2023/04/13 07:22:05;;;;;;;0.82;0.30;;;;;;;10.26;73.76;99293.75;5011130;28;20045;-87
2023/04/13 07:24:34;;;;;;;0.52;0.32;;;;;;;10.71;70.22;99282.78;4997598;28;20048;-87
2023/04/13 07:27:01;;;;;;;1.65;0.20;;;;;;;10.75;70.79;99292.28;4999071;28;20049;-86
2023/04/13 07:29:27;;;;;;;0.28;0.15;;;;;;;10.86;69.06;99302.41;5000053;28;20140;-87
2023/04/13 07:32:01;;;;;;;1.95;0.30;;;;;;;11.03;70.28;99301.00;5029096;28;20053;-86
2023/04/13 07:34:28;;;;;;;6.97;0.50;;;;;;;10.48;70.16;99300.97;5012385;28;20094;-85
2023/04/13 07:36:55;;;;;;;3.30;0.30;;;;;;;10.18;73.18;99314.00;5010919;28;20171;-85
2023/04/13 07:39:21;;;;;;;2.17;0.73;;;;;;;10.24;73.14;99313.84;5010719;28;20053;-87
2023/04/13 07:41:48;;;;;;;2.05;0.30;;;;;;;10.69;70.22;99318.63;5009115;28;20045;-87
2023/04/13 07:44:15;;;;;;;2.40;0.40;;;;;;;10.46;70.16;99332.41;4995540;28;20110;-88
2023/04/13 07:46:42;;;;;;;1.15;0.38;;;;;;;10.19;71.23;99336.66;5012323;28;20072;-85
2023/04/13 07:49:08;;;;;;;0.30;0.17;;;;;;;9.94;72.53;99347.81;4990626;28;20053;-87
2023/04/13 07:51:36;;;;;;;0.95;0.40;;;;;;;9.81;72.79;99344.66;4995717;28;20057;-88
2023/04/13 07:54:03;;;;;;;1.45;0.40;;;;;;;9.69;73.18;99348.47;4999442;28;20045;-89
2023/04/13 07:56:30;;;;;;;0.28;0.28;;;;;;;9.60;73.18;99340.88;5001933;28;20057;-89
2023/04/13 07:58:57;;;;;;;0.20;0.20;;;;;;;9.65;73.28;99359.91;5046069;28;20041;-87
2023/04/13 08:01:24;;;;;;;1.67;0.28;;;;;;;9.93;73.45;99370.50;5016318;28;20057;-89
2023/04/13 08:03:55;;;;;;;1.92;0.40;;;;;;;10.10;72.61;99377.00;4998897;28;20423;-88
2023/04/13 08:06:22;;;;;;;2.30;0.40;;;;;;;10.01;71.74;99382.47;5015467;28;20049;-88
2023/04/13 08:08:49;;;;;;;1.30;0.63;;;;;;;9.93;72.43;99375.72;5014114;28;20103;-87
2023/04/13 08:11:19;;;;;;;2.47;0.20;;;;;;;9.81;72.60;99380.41;5000273;28;20088;-88
2023/04/13 08:13:48;;;;;;;0.38;0.20;;;;;;;9.83;72.82;99392.53;5000942;28;20404;-89
2023/04/13 08:16:15;;;;;;;3.10;1.00;;;;;;;9.92;72.07;99399.25;5000562;28;20067;-88
2023/04/13 08:18:42;;;;;;;2.28;0.80;;;;;;;9.93;72.33;99394.00;5014459;28;20049;-88
2023/04/13 08:21:14;;;;;;;0.35;0.35;;;;;;;9.82;72.88;99405.66;4986879;28;20049;-89
2023/04/13 08:23:42;;;;;;;5.70;0.47;;;;;;;9.74;73.92;99424.97;5001167;28;20089;-87
2023/04/13 08:26:18;;;;;;;1.23;0.65;;;;;;;9.74;73.84;99427.59;4994489;28;20041;-87
2023/04/13 08:28:47;;;;;;;1.52;0.32;;;;;;;9.70;73.86;99419.88;4995392;28;20054;-89
2023/04/13 08:31:14;;;;;;;3.67;0.30;;;;;;;9.60;74.51;99424.47;4997816;28;20069;-87
2023/04/13 08:33:44;;;;;;;5.38;0.30;;;;;;;9.66;74.63;99426.06;5028996;28;20136;-88
2023/04/13 08:36:15;;;;;;;4.90;0.60;;;;;;;9.59;75.12;99428.84;5001731;28;20050;-88
2023/04/13 08:38:45;;;;;;;2.30;0.50;;;;;;;9.56;74.72;99438.50;5014471;28;20100;-89
2023/04/13 08:41:12;;;;;;;1.95;0.50;;;;;;;9.59;74.15;99426.25;4993779;28;20873;-87
2023/04/13 08:43:39;;;;;;;0.80;0.43;;;;;;;9.59;74.98;99439.31;5010677;28;20144;-89
2023/04/13 08:46:06;;;;;;;2.30;0.50;;;;;;;9.63;74.43;99428.75;5001386;28;20677;-89
2023/04/13 08:48:42;;;;;;;1.05;0.40;;;;;;;9.70;74.13;99443.38;5015456;28;20049;-89
2023/04/13 08:51:12;;;;;;;1.77;0.30;;;;;;;9.70;73.75;99449.47;4999743;28;20488;-87
2023/04/13 08:53:40;;;;;;;1.75;0.60;;;;;;;9.66;73.73;99445.22;5009657;28;20053;-86
2023/04/13 08:56:14;;;;;;;2.25;1.20;;;;;;;9.58;74.27;99463.72;5014596;28;20041;-86
2023/04/13 08:58:42;;;;;;;0.60;0.20;;;;;;;9.62;74.23;99456.66;5012194;28;20072;-87
2023/04/13 09:01:14;;;;;;;1.60;0.28;;;;;;;9.62;74.70;99458.41;5010497;28;20562;-86
2023/04/13 09:04:10;;;;;;;3.72;1.05;;;;;;;9.75;74.72;99465.03;4995903;28;20049;-86
2023/04/13 09:06:41;;;;;;;2.15;0.30;;;;;;;9.76;74.31;99471.97;5013004;28;20041;-88
2023/04/13 09:09:13;;;;;;;1.95;0.43;;;;;;;9.77;75.18;99468.47;5013411;28;20041;-86
2023/04/13 09:11:41;;;;;;;2.50;0.32;;;;;;;9.85;75.10;99470.91;4998423;28;20053;-87
2023/04/13 09:14:09;;;;;;;6.93;0.88;;;;;;;9.81;75.87;99470.13;5030613;28;20053;-85
2023/04/13 09:16:40;;;;;;;2.83;0.50;;;;;;;10.24;74.72;99487.31;5001717;28;20048;-87
2023/04/13 09:19:08;;;;;;;2.58;0.70;;;;;;;10.64;73.86;99466.22;5017821;28;20041;-87
2023/04/13 09:21:41;;;;;;;6.20;0.50;;;;;;;10.78;71.77;99481.53;4982949;28;20045;-85
2023/04/13 09:24:09;;;;;;;1.23;0.20;;;;;;;10.94;71.77;99477.59;5016860;28;20045;-86
2023/04/13 09:26:51;;;;;;;1.23;0.30;;;;;;;11.11;71.78;99484.06;5015780;28;20059;-87
2023/04/13 09:29:20;;;;;;;2.17;0.40;;;;;;;11.50;70.57;99478.50;5022071;28;20050;-88
2023/04/13 09:31:48;;;;;;;0.95;0.30;;;;;;;11.54;69.28;99481.00;4996336;28;20049;-85
2023/04/13 09:34:27;;;;;;;2.15;0.98;;;;;;;11.28;70.07;99492.28;4995968;28;20041;-88
2023/04/13 09:36:54;;;;;;;1.20;0.38;;;;;;;11.02;71.20;99490.47;5013347;28;20045;-87
2023/04/13 09:39:27;;;;;;;2.15;0.93;;;;;;;11.19;70.83;99496.03;5016849;28;20144;-87
2023/04/13 09:41:54;;;;;;;1.75;0.68;;;;;;;11.40;70.44;99491.06;4994138;28;20789;-86
2023/04/13 09:44:24;;;;;;;2.65;0.55;;;;;;;11.66;69.46;99492.84;5010836;28;20133;-89
2023/04/13 09:47:05;;;;;;;3.42;0.30;;;;;;;13.43;63.64;99484.03;4994945;28;20099;-85
2023/04/13 09:49:39;;;;;;;0.38;0.20;;;;;;;13.97;59.72;99495.84;4996065;28;20053;-86
2023/04/13 09:52:07;;;;;;;0.90;0.40;;;;;;;13.49;59.53;99487.28;5008981;28;20045;-87
2023/04/13 09:54:33;;;;;;;1.55;0.55;;;;;;;14.03;57.57;99500.88;4990350;28;20596;-86
2023/04/13 09:57:00;;;;;;;0.25;0.25;;;;;;;14.53;56.47;99494.34;4993793;28;20144;-87
2023/04/13 09:59:27;;;;;;;2.05;0.70;;;;;;;15.38;54.71;99481.75;5008677;28;20053;-87
2023/04/13 10:01:54;;;;;;;1.33;0.40;;;;;;;15.68;51.40;99474.16;4979634;28;20049;-87
2023/04/13 10:04:23;;;;;;;0.45;0.30;;;;;;;16.06;50.73;99482.91;5008609;28;21190;-88
2023/04/13 10:06:51;;;;;;;4.35;0.52;;;;;;;15.85;50.43;99473.34;5026327;28;20084;-87
2023/04/13 10:09:19;;;;;;;2.28;0.52;;;;;;;16.35;48.39;99484.06;4993397;28;20045;-87
2023/04/13 10:11:51;;;;;;;1.35;0.60;;;;;;;16.94;46.86;99486.31;5029482;28;20046;-87
2023/04/13 10:14:26;;;;;;;1.48;0.43;;;;;;;17.23;43.46;99483.84;5011796;28;20046;-87
2023/04/13 10:17:36;;;;;;;2.00;0.60;;;;;;;17.49;43.99;99508.84;5025805;28;20053;-87
2023/04/13 10:20:09;;;;;;;0.55;0.38;;;;;;;17.82;41.70;99499.91;5009774;28;20519;-87
2023/04/13 10:22:39;;;;;;;1.83;0.40;;;;;;;17.89;42.09;99501.28;4996036;28;20532;-87
2023/04/13 10:25:07;;;;;;;0.65;0.28;;;;;;;18.04;40.77;99511.97;4994738;28;20057;-87
2023/04/13 10:27:39;;;;;;;1.38;0.25;;;;;;;18.84;40.54;99512.47;4985258;28;20512;-86
2023/04/13 10:30:18;;;;;;;1.33;0.57;;;;;;;19.83;38.27;99508.94;5031015;28;20100;-89
2023/04/13 10:32:44;;;;;;;0.85;0.40;;;;;;;20.06;37.67;99518.00;5017542;28;20057;-88
2023/04/13 10:35:14;;;;;;;0.63;0.28;;;;;;;20.52;36.26;99514.06;5013175;28;20040;-87
2023/04/13 10:37:43;;;;;;;0.47;0.47;;;;;;;21.42;35.54;99515.78;4994888;28;20053;-87
2023/04/13 10:40:15;;;;;;;0.50;0.38;;;;;;;21.51;33.86;99524.91;4994188;28;20063;-87
2023/04/13 10:42:45;;;;;;;0.60;0.30;;;;;;;21.20;33.60;99527.13;4993507;28;20057;-89
2023/04/13 10:45:24;;;;;;;2.25;0.60;;;;;;;19.60;36.14;99526.34;4990508;28;20044;-87
2023/04/13 10:47:53;;;;;;;3.00;0.30;;;;;;;18.73;37.99;99533.50;5023195;28;20042;-87
2023/04/13 10:50:25;;;;;;;0.63;0.32;;;;;;;18.27;38.89;99531.81;5008485;28;20061;-88
2023/04/13 10:53:08;;;;;;;1.75;0.35;;;;;;;18.64;38.32;99533.13;4977848;28;20059;-88
2023/04/13 10:55:36;;;;;;;0.57;0.20;;;;;;;17.38;39.70;99519.16;4981663;28;20049;-89
2023/04/13 10:58:15;;;;;;;0.38;0.25;;;;;;;16.10;42.19;99546.03;5004290;28;20144;-88
2023/04/13 11:00:45;;;;;;;0.55;0.20;;;;;;;15.37;43.00;99548.63;5020414;28;20492;-88
2023/04/13 11:03:13;;;;;;;3.60;0.68;;;;;;;14.61;44.30;99554.59;4991079;28;20065;-88
2023/04/13 11:05:40;;;;;;;0.65;0.30;;;;;;;14.67;45.20;99538.56;4988233;28;20057;-88
2023/04/13 11:08:07;;;;;;;1.42;0.43;;;;;;;14.69;43.81;99538.47;5001319;28;20045;-87
2023/04/13 11:10:36;;;;;;;1.10;0.10;;;;;;;14.32;43.63;99550.56;4977433;28;20667;-88
2023/04/13 11:13:03;;;;;;;0.45;0.35;;;;;;;13.92;44.53;99547.81;4994257;28;20075;-87
2023/04/13 11:15:32;;;;;;;0.63;0.30;;;;;;;13.53;45.16;99548.47;4993245;28;20049;-86
2023/04/13 11:18:01;;;;;;;0.80;0.40;;;;;;;13.53;45.80;99556.34;4988591;28;20061;-86
2023/04/13 11:20:38;;;;;;;0.75;0.40;;;;;;;13.80;45.10;99537.78;5026710;28;20555;-88
2023/04/13 11:23:17;;;;;;;0.45;0.30;;;;;;;14.95;42.88;99549.66;5042646;28;20046;-89
2023/04/13 11:25:58;;;;;;;0.15;0.15;;;;;;;15.54;41.39;99553.97;5007891;28;20129;-87
2023/04/13 11:28:36;;;;;;;1.67;0.50;;;;;;;16.97;39.73;99563.66;5010335;28;20068;-87
2023/04/13 11:31:04;;;;;;;1.23;0.30;;;;;;;16.35;38.66;99579.16;4997789;28;20053;-87
2023/04/13 11:33:32;;;;;;;0.73;0.47;;;;;;;15.32;40.13;99569.09;5011352;28;20056;-86
2023/04/13 11:36:01;;;;;;;1.17;0.73;;;;;;;15.22;40.98;99573.91;5007479;28;20054;-87
2023/04/13 11:38:29;;;;;;;0.40;0.40;;;;;;;15.87;39.98;99566.47;4995922;28;20157;-86
2023/04/13 11:41:06;;;;;;;1.30;0.57;;;;;;;15.01;41.49;99575.72;5007709;28;20072;-86
2023/04/13 11:43:34;;;;;;;1.23;0.50;;;;;;;15.58;40.44;99567.84;4991662;28;20420;-86